CYED/YED METAR and TAF weather

Enter ICAO airport designator
Station Type Date Time Source
CYED METAR 2019/04/25 02:00 UTC NOAA

CYED 250200Z 30018G28KT 12SM FEW070 FEW090 FEW250 06/M12 A3006 RMK CU1AC2CI1 DA1589FT VIRGA ACC ASOCTD SLP201


Station Type Date Time Source
CYED Decoded METAR 2019/04/25 02:00 UTC NOAA

Edmonton Namao Alta., Canada (CYED) 53-40N 113-28W 688M
Apr 24, 2019 - 10:00 PM EDT / 2019.04.25 0200 UTC
Wind: from the WNW (300 degrees) at 21 MPH (18 KT) gusting to 32 MPH (28 KT):0
Visibility: 12 mile(s):0
Sky conditions: mostly clear
Temperature: 42 F (6 C)
Dew Point: 10 F (-12 C)
Relative Humidity: 26%
Pressure (altimeter): 30.06 in. Hg (1017 hPa)
ob: CYED 250200Z 30018G28KT 12SM FEW070 FEW090 FEW250 06/M12 A3006 RMK CU1AC2CI1 DA1589FT VIRGA ACC ASOCTD SLP201
cycle: 2

Station Type Date Time Source
CYED TAF 2019/04/24 21:33 UTC NOAA

TAF
AMD TAF
AMD CYED 242132Z 2421/2506 31012G28KT P6SM SCT060 BKN120
TEMPO 2421/2501 P6SM -SHSN OVC060 PROB30 2421/2423 VRB15G25KT 4SM -TSRA BR BKN060CB
FM250400 31010G25KT P6SM FEW060 SCT120
BECMG 2504/2506 28010KT
RMK NXT FCST BY 250000Z

Example: see airport list